Time;durP1;ratioP1;P1;durP2;ratioP2;P2;SDS_P1;SDS_P2;PMS_P1;PMS_P2;Temp;Humidity;BMP_temperature;BMP_pressure;BME280_temperature;BME280_humidity;BME280_pressure;Samples;Min_cycle;Max_cycle;Signal;HPM_P1;HPM_P2
2022/08/07 00:01:30;;;;;;;2.40;1.70;;;14.30;64.20;;;;;;5013127;28;20037;-77
2022/08/07 00:03:55;;;;;;;4.80;2.20;;;14.40;63.60;;;;;;4994761;28;20033;-77
2022/08/07 00:06:21;;;;;;;2.80;1.95;;;14.50;63.60;;;;;;5011948;28;20033;-77
2022/08/07 00:08:47;;;;;;;5.68;2.75;;;14.30;63.00;;;;;;5024478;28;20479;-77
2022/08/07 00:11:12;;;;;;;5.63;2.53;;;14.10;67.10;;;;;;4989050;28;20036;-77
2022/08/07 00:13:39;;;;;;;3.28;2.72;;;13.80;70.00;;;;;;5010362;28;20029;-77
2022/08/07 00:16:04;;;;;;;2.63;1.95;;;13.90;66.40;;;;;;4996289;28;20109;-77
2022/08/07 00:18:30;;;;;;;2.50;1.88;;;14.10;64.90;;;;;;5010697;28;20128;-78
2022/08/07 00:21:06;;;;;;;3.13;2.08;;;14.20;64.40;;;;;;5014193;28;20030;-77
2022/08/07 00:23:33;;;;;;;5.15;2.33;;;14.20;64.10;;;;;;4992712;28;20125;-78
2022/08/07 00:25:59;;;;;;;3.63;2.33;;;14.00;64.00;;;;;;5012204;28;20038;-78
2022/08/07 00:28:25;;;;;;;5.22;2.65;;;13.90;66.50;;;;;;5013014;28;20121;-77
2022/08/07 00:30:50;;;;;;;4.75;2.08;;;13.80;66.50;;;;;;5016054;28;20121;-78
2022/08/07 00:33:16;;;;;;;5.40;3.10;;;13.80;65.20;;;;;;4976156;28;20431;-77
2022/08/07 00:35:42;;;;;;;3.17;2.88;;;13.80;65.60;;;;;;5009547;28;20102;-76
2022/08/07 00:38:07;;;;;;;6.45;3.10;;;13.80;65.10;;;;;;5012065;28;20574;-77
2022/08/07 00:40:33;;;;;;;5.50;3.28;;;13.70;64.60;;;;;;4992307;28;20034;-77
2022/08/07 00:42:58;;;;;;;5.28;2.90;;;13.70;65.10;;;;;;5013975;28;20022;-76
2022/08/07 00:45:24;;;;;;;5.45;2.53;;;13.50;69.30;;;;;;4995832;28;20030;-77
2022/08/07 00:47:49;;;;;;;3.72;2.35;;;13.30;75.60;;;;;;5007488;28;20030;-78
2022/08/07 00:50:15;;;;;;;6.80;3.00;;;13.00;76.30;;;;;;5008324;28;20453;-77
2022/08/07 00:52:41;;;;;;;3.83;2.60;;;13.10;72.70;;;;;;5010881;28;20121;-77
2022/08/07 00:55:07;;;;;;;4.88;2.53;;;13.30;68.30;;;;;;5025915;28;20180;-77
2022/08/07 00:57:33;;;;;;;3.60;3.10;;;13.40;67.20;;;;;;5011538;28;20481;-77
2022/08/07 00:59:58;;;;;;;5.25;2.40;;;13.20;72.80;;;;;;5002839;28;20091;-78
2022/08/07 01:02:24;;;;;;;3.30;2.45;;;13.20;70.20;;;;;;4995286;28;20041;-78
2022/08/07 01:04:52;;;;;;;8.80;3.00;;;13.20;67.90;;;;;;4998356;28;20160;-78
2022/08/07 01:07:21;;;;;;;5.90;2.72;;;13.20;69.60;;;;;;4995827;28;20030;-78
2022/08/07 01:09:47;;;;;;;5.43;2.90;;;13.00;74.30;;;;;;5011605;28;20105;-77
2022/08/07 01:12:16;;;;;;;2.83;2.63;;;12.80;79.50;;;;;;5004923;28;20042;-77
2022/08/07 01:14:41;;;;;;;2.95;2.10;;;12.60;85.90;;;;;;4962583;28;20033;-78
2022/08/07 01:17:08;;;;;;;3.25;2.30;;;12.80;73.50;;;;;;5005517;28;20026;-78
2022/08/07 01:19:33;;;;;;;3.22;2.08;;;13.10;72.10;;;;;;4993639;28;20065;-78
2022/08/07 01:21:59;;;;;;;2.70;2.05;;;13.10;71.00;;;;;;4975094;28;20053;-78
2022/08/07 01:24:25;;;;;;;6.68;2.92;;;13.20;71.90;;;;;;4975779;28;20045;-78
2022/08/07 01:26:50;;;;;;;4.30;2.50;;;13.00;69.90;;;;;;4997704;28;20026;-78
2022/08/07 01:29:16;;;;;;;3.97;3.10;;;12.70;76.80;;;;;;4996403;28;20010;-77
2022/08/07 01:31:41;;;;;;;3.72;3.17;;;12.40;71.30;;;;;;4993246;28;20368;-77
2022/08/07 01:34:07;;;;;;;4.47;2.67;;;12.20;79.50;;;;;;4976959;28;20057;-78
2022/08/07 01:36:33;;;;;;;9.63;2.97;;;12.30;89.70;;;;;;5015498;28;20064;-77
2022/08/07 01:38:59;;;;;;;4.88;2.45;;;12.50;83.70;;;;;;5011891;28;20036;-78
2022/08/07 01:41:24;;;;;;;2.95;2.20;;;12.60;77.90;;;;;;4991567;28;20034;-76
2022/08/07 01:43:50;;;;;;;3.80;2.70;;;12.70;75.60;;;;;;5010195;28;20030;-77
2022/08/07 01:46:16;;;;;;;7.22;2.80;;;12.70;75.30;;;;;;4981183;28;20033;-77
2022/08/07 01:48:45;;;;;;;3.47;2.72;;;12.60;84.90;;;;;;4996422;28;20077;-77
2022/08/07 01:51:13;;;;;;;5.20;2.90;;;12.50;85.70;;;;;;4992635;28;20512;-77
2022/08/07 01:53:41;;;;;;;3.28;2.97;;;12.40;90.20;;;;;;5006795;28;20804;-78
2022/08/07 01:56:09;;;;;;;5.63;3.20;;;12.30;92.50;;;;;;4988386;28;20125;-77
2022/08/07 01:58:38;;;;;;;4.72;3.17;;;12.10;94.40;;;;;;4993641;28;20047;-78
2022/08/07 02:01:12;;;;;;;3.28;2.70;;;12.10;89.40;;;;;;5006730;28;20033;-78
2022/08/07 02:03:41;;;;;;;7.10;3.50;;;12.20;87.00;;;;;;5005651;28;20038;-78
2022/08/07 02:06:06;;;;;;;4.18;3.00;;;12.30;83.40;;;;;;5007078;28;20061;-77
2022/08/07 02:08:36;;;;;;;3.90;3.00;;;12.20;88.50;;;;;;4991072;28;20508;-77
2022/08/07 02:11:01;;;;;;;8.88;3.08;;;12.10;94.30;;;;;;4985746;28;20520;-77
2022/08/07 02:13:30;;;;;;;6.30;2.90;;;12.00;94.70;;;;;;4992885;28;20037;-77
2022/08/07 02:15:56;;;;;;;3.42;2.38;;;12.00;89.30;;;;;;5005202;28;20500;-77
2022/08/07 02:18:22;;;;;;;3.58;2.30;;;12.10;85.20;;;;;;4991492;28;20038;-77
2022/08/07 02:20:49;;;;;;;4.82;2.85;;;12.10;84.10;;;;;;5006593;28;20034;-77
2022/08/07 02:23:15;;;;;;;5.88;3.17;;;12.00;88.20;;;;;;4990260;28;20144;-77
2022/08/07 02:25:40;;;;;;;4.43;2.92;;;12.00;91.30;;;;;;5008211;28;20069;-77
2022/08/07 02:28:06;;;;;;;3.78;2.20;;;11.90;91.80;;;;;;5002517;28;20116;-77
2022/08/07 02:30:33;;;;;;;2.83;2.15;;;11.90;85.70;;;;;;5005391;28;20030;-78
2022/08/07 02:32:58;;;;;;;2.97;2.22;;;12.00;85.40;;;;;;5009661;28;20057;-78
2022/08/07 02:35:24;;;;;;;2.60;1.63;;;12.10;85.90;;;;;;5008623;28;20030;-77
2022/08/07 02:37:49;;;;;;;6.10;2.60;;;12.10;84.80;;;;;;4992893;28;20065;-77
2022/08/07 02:40:15;;;;;;;4.07;3.38;;;12.00;83.80;;;;;;5012027;28;20117;-77
2022/08/07 02:42:41;;;;;;;2.75;2.30;;;11.90;84.10;;;;;;4992061;28;20382;-75
2022/08/07 02:45:08;;;;;;;2.33;1.98;;;11.80;84.60;;;;;;4995634;28;20056;-75
2022/08/07 02:47:33;;;;;;;3.20;2.33;;;11.80;83.70;;;;;;4992521;28;20038;-75
2022/08/07 02:49:59;;;;;;;2.47;2.10;;;11.80;84.40;;;;;;5010084;28;20418;-75
2022/08/07 02:52:46;;;;;;;3.10;2.55;;;11.70;84.50;;;;;;4994345;28;20528;-75
2022/08/07 02:55:17;;;;;;;4.80;2.70;;;11.60;89.40;;;;;;5002137;28;20069;-75
2022/08/07 02:57:43;;;;;;;2.50;2.30;;;11.50;90.80;;;;;;5002751;28;22686;-76
2022/08/07 03:00:09;;;;;;;3.65;2.33;;;11.30;94.70;;;;;;4989464;28;20073;-75
2022/08/07 03:02:35;;;;;;;3.08;2.33;;;11.30;95.70;;;;;;5011265;28;20038;-77
2022/08/07 03:05:01;;;;;;;4.18;3.17;;;11.40;90.40;;;;;;5010408;28;20543;-77
2022/08/07 03:07:26;;;;;;;3.33;2.78;;;11.40;91.60;;;;;;5015893;28;20045;-77
2022/08/07 03:09:52;;;;;;;3.80;2.90;;;11.30;94.20;;;;;;4994353;28;20054;-77
2022/08/07 03:12:17;;;;;;;8.13;3.10;;;11.20;96.00;;;;;;4993143;28;20029;-75
2022/08/07 03:14:43;;;;;;;5.10;3.08;;;11.10;99.00;;;;;;4994903;28;20088;-75
2022/08/07 03:17:08;;;;;;;3.08;2.80;;;11.00;99.90;;;;;;5010282;28;20030;-75
2022/08/07 03:19:35;;;;;;;4.38;3.30;;;11.10;99.40;;;;;;4993599;28;20425;-75
2022/08/07 03:22:01;;;;;;;5.90;3.33;;;11.10;99.90;;;;;;4994781;28;20057;-75
2022/08/07 03:24:26;;;;;;;3.13;2.63;;;11.00;99.90;;;;;;4994305;28;20401;-75
2022/08/07 03:26:52;;;;;;;6.13;3.20;;;10.90;99.90;;;;;;5009729;28;20026;-75
2022/08/07 03:29:17;;;;;;;7.07;3.10;;;10.80;99.90;;;;;;5008575;28;20417;-75
2022/08/07 03:31:44;;;;;;;4.55;3.10;;;10.80;99.90;;;;;;5007507;28;20041;-75
2022/08/07 03:34:09;;;;;;;5.82;3.30;;;10.80;99.90;;;;;;5011012;28;20045;-75
2022/08/07 03:36:35;;;;;;;4.68;3.10;;;10.80;99.90;;;;;;5010471;28;20034;-75
2022/08/07 03:39:03;;;;;;;7.50;3.58;;;10.70;99.90;;;;;;5013085;28;20099;-77
2022/08/07 03:41:29;;;;;;;5.22;3.28;;;10.80;99.90;;;;;;4996912;28;20262;-77
2022/08/07 03:43:55;;;;;;;6.93;3.17;;;10.70;99.90;;;;;;5014428;28;20034;-77
2022/08/07 03:46:21;;;;;;;4.85;3.60;;;10.70;99.90;;;;;;5013209;28;20120;-77
2022/08/07 03:48:46;;;;;;;4.22;3.25;;;10.60;99.90;;;;;;5013887;28;20100;-77
2022/08/07 03:51:12;;;;;;;5.75;3.22;;;10.60;99.90;;;;;;4996601;28;20025;-77
2022/08/07 03:53:38;;;;;;;3.88;3.53;;;10.60;99.90;;;;;;5010215;28;20038;-77
2022/08/07 03:56:03;;;;;;;4.45;3.58;;;10.50;99.90;;;;;;5013878;28;20370;-77
2022/08/07 03:58:29;;;;;;;4.43;3.13;;;10.60;99.90;;;;;;4992211;28;20046;-77
2022/08/07 04:00:55;;;;;;;5.90;3.45;;;10.50;99.90;;;;;;5010674;28;20132;-77
2022/08/07 04:03:21;;;;;;;6.93;3.17;;;10.60;99.90;;;;;;4994765;28;20037;-77
2022/08/07 04:05:46;;;;;;;4.43;3.63;;;10.60;99.90;;;;;;4994583;28;20406;-77
2022/08/07 04:08:13;;;;;;;3.80;3.35;;;10.50;99.90;;;;;;5014161;28;20079;-75
2022/08/07 04:10:39;;;;;;;10.27;3.25;;;10.60;99.90;;;;;;5013202;28;20450;-75
2022/08/07 04:13:06;;;;;;;4.68;3.55;;;10.50;99.90;;;;;;5016880;28;20386;-75
2022/08/07 04:15:32;;;;;;;3.60;3.25;;;10.50;99.90;;;;;;5009982;28;20041;-75
2022/08/07 04:17:58;;;;;;;6.75;3.85;;;10.40;99.90;;;;;;5012508;28;20038;-75
2022/08/07 04:20:24;;;;;;;6.32;3.30;;;10.40;99.90;;;;;;4994624;28;20402;-75
2022/08/07 04:22:49;;;;;;;5.72;3.28;;;10.50;99.90;;;;;;5026607;28;20026;-75
2022/08/07 04:25:15;;;;;;;4.80;3.60;;;10.40;99.90;;;;;;4995067;28;20138;-75
2022/08/07 04:27:40;;;;;;;5.43;3.58;;;10.50;99.90;;;;;;4994111;28;20073;-75
2022/08/07 04:30:07;;;;;;;4.93;3.45;;;10.50;99.90;;;;;;4995712;28;20025;-75
2022/08/07 04:32:32;;;;;;;3.65;2.95;;;10.50;99.90;;;;;;5010991;28;20398;-75
2022/08/07 04:34:58;;;;;;;5.30;3.60;;;10.60;99.90;;;;;;5010275;28;20030;-77
2022/08/07 04:37:24;;;;;;;5.35;3.92;;;10.60;99.90;;;;;;4988316;28;20464;-77
2022/08/07 04:39:49;;;;;;;7.47;4.47;;;10.70;99.90;;;;;;5007001;28;20482;-77
2022/08/07 04:42:15;;;;;;;5.32;3.70;;;10.80;99.90;;;;;;4989540;28;20402;-77
2022/08/07 04:44:40;;;;;;;5.80;4.05;;;10.80;99.10;;;;;;4992533;28;20045;-77
2022/08/07 04:47:12;;;;;;;4.07;3.67;;;10.90;98.10;;;;;;5026200;28;20030;-77
2022/08/07 04:49:41;;;;;;;4.70;4.13;;;11.00;98.10;;;;;;5009398;28;20041;-75
2022/08/07 04:52:13;;;;;;;5.35;4.18;;;11.10;99.00;;;;;;5009723;28;20223;-77
2022/08/07 04:54:45;;;;;;;6.00;4.00;;;11.20;99.30;;;;;;5025546;28;20099;-77
2022/08/07 04:57:21;;;;;;;4.90;3.92;;;11.30;99.90;;;;;;5014435;28;20045;-75
2022/08/07 05:00:04;;;;;;;7.68;3.95;;;11.40;98.10;;;;;;4995454;28;20034;-77
2022/08/07 05:02:41;;;;;;;4.90;3.38;;;11.50;97.80;;;;;;5011759;28;20038;-77
2022/08/07 05:05:15;;;;;;;7.32;4.20;;;11.60;98.00;;;;;;5008338;28;20044;-77
2022/08/07 05:08:07;;;;;;;9.02;4.28;;;11.80;99.90;;;;;;5024952;28;20414;-77
2022/08/07 05:10:36;;;;;;;6.63;4.03;;;11.90;99.10;;;;;;5010543;28;20038;-77
2022/08/07 05:13:04;;;;;;;6.25;3.90;;;12.10;99.90;;;;;;5009684;28;20033;-77
2022/08/07 05:15:35;;;;;;;6.05;3.65;;;12.20;98.60;;;;;;5013351;28;20070;-77
2022/08/07 05:18:04;;;;;;;4.57;3.65;;;12.40;98.40;;;;;;5014082;28;20044;-77
2022/08/07 05:20:33;;;;;;;4.55;3.60;;;12.40;98.10;;;;;;5007577;28;20129;-77
2022/08/07 05:23:03;;;;;;;6.53;3.58;;;12.60;98.50;;;;;;5012784;28;20046;-77
2022/08/07 05:25:28;;;;;;;4.88;3.35;;;12.70;97.50;;;;;;5009245;28;20034;-77
2022/08/07 05:27:54;;;;;;;4.65;3.60;;;12.90;97.60;;;;;;5010028;28;20052;-76
2022/08/07 05:30:19;;;;;;;5.60;3.42;;;13.00;97.30;;;;;;5010934;28;20037;-77
2022/08/07 05:32:49;;;;;;;4.45;3.03;;;13.20;97.70;;;;;;5009077;28;20095;-77
2022/08/07 05:35:17;;;;;;;3.30;3.00;;;13.30;97.80;;;;;;4993252;28;20088;-77
2022/08/07 05:37:43;;;;;;;5.03;3.35;;;13.50;97.80;;;;;;4996213;28;20129;-77
2022/08/07 05:40:09;;;;;;;4.15;3.17;;;13.70;97.80;;;;;;5011919;28;20200;-77
2022/08/07 05:42:34;;;;;;;4.28;2.95;;;13.80;97.70;;;;;;5006030;28;20026;-78
2022/08/07 05:45:00;;;;;;;5.93;2.70;;;13.90;98.20;;;;;;5006062;28;20038;-77
2022/08/07 05:47:28;;;;;;;7.85;2.75;;;14.10;98.40;;;;;;4993833;28;20129;-78
2022/08/07 05:49:54;;;;;;;3.25;3.05;;;14.20;98.60;;;;;;4992808;28;20550;-77
2022/08/07 05:52:19;;;;;;;7.10;2.67;;;14.40;98.70;;;;;;4991182;28;20124;-77
2022/08/07 05:54:46;;;;;;;2.67;2.28;;;14.50;98.70;;;;;;4996457;28;20151;-77
2022/08/07 05:57:11;;;;;;;4.80;2.53;;;14.70;98.20;;;;;;4992980;28;20037;-77
2022/08/07 05:59:38;;;;;;;7.60;2.33;;;14.90;98.60;;;;;;5012095;28;20038;-77
2022/08/07 06:02:05;;;;;;;4.65;2.28;;;15.10;98.30;;;;;;4992651;28;20037;-77
2022/08/07 06:04:30;;;;;;;3.45;2.00;;;15.30;98.00;;;;;;5008262;28;20041;-77
2022/08/07 06:06:58;;;;;;;3.97;2.10;;;15.50;98.30;;;;;;5011721;28;20096;-77
2022/08/07 06:09:23;;;;;;;2.63;2.15;;;15.70;98.50;;;;;;5023344;28;20402;-77
2022/08/07 06:11:49;;;;;;;2.70;1.90;;;15.80;98.80;;;;;;5006371;28;20037;-77
2022/08/07 06:14:14;;;;;;;2.42;2.22;;;16.00;98.30;;;;;;4989188;28;20029;-77
2022/08/07 06:16:40;;;;;;;5.18;2.17;;;16.20;97.80;;;;;;5005875;28;20040;-77
2022/08/07 06:19:05;;;;;;;1.65;1.55;;;16.40;97.50;;;;;;5004324;28;20025;-77
2022/08/07 06:21:31;;;;;;;2.88;1.73;;;16.60;96.30;;;;;;4989638;28;20037;-77
2022/08/07 06:23:57;;;;;;;3.80;1.67;;;16.70;97.00;;;;;;5005396;28;20038;-76
2022/08/07 06:26:22;;;;;;;3.55;1.67;;;17.00;97.20;;;;;;4991648;28;20037;-77
2022/08/07 06:28:49;;;;;;;1.88;1.70;;;17.10;96.70;;;;;;5003914;28;20113;-77
2022/08/07 06:31:15;;;;;;;2.25;1.35;;;17.30;96.00;;;;;;4989533;28;20120;-77
2022/08/07 06:33:41;;;;;;;5.10;1.40;;;17.50;97.00;;;;;;5010489;28;20488;-77
2022/08/07 06:36:07;;;;;;;1.75;1.50;;;17.70;97.50;;;;;;4992779;28;20026;-77
2022/08/07 06:38:32;;;;;;;2.20;1.50;;;17.80;96.40;;;;;;4996519;28;20033;-77
2022/08/07 06:40:58;;;;;;;1.27;1.17;;;18.00;96.80;;;;;;5017258;28;20061;-77
2022/08/07 06:43:23;;;;;;;3.45;1.30;;;18.20;96.70;;;;;;4983071;28;20108;-77
2022/08/07 06:45:49;;;;;;;3.50;1.30;;;18.40;95.80;;;;;;4999762;28;20037;-77
2022/08/07 06:48:14;;;;;;;3.70;1.40;;;18.50;96.00;;;;;;5011025;28;20033;-77
2022/08/07 06:50:40;;;;;;;2.08;1.40;;;18.60;95.00;;;;;;4993999;28;20080;-77
2022/08/07 06:53:06;;;;;;;3.35;1.10;;;18.80;95.40;;;;;;4996343;28;20053;-77
2022/08/07 06:55:32;;;;;;;1.88;0.80;;;18.90;94.90;;;;;;5015810;28;20053;-78
2022/08/07 06:57:59;;;;;;;3.20;1.13;;;19.10;94.90;;;;;;5006890;28;20038;-77
2022/08/07 07:00:26;;;;;;;1.35;1.25;;;19.20;94.40;;;;;;5027698;28;20031;-77
2022/08/07 07:02:52;;;;;;;3.45;1.10;;;19.40;94.20;;;;;;4997668;28;20022;-77
2022/08/07 07:05:19;;;;;;;2.58;1.13;;;19.60;94.00;;;;;;4997890;28;20037;-77
2022/08/07 07:07:45;;;;;;;3.10;1.17;;;19.60;93.80;;;;;;5012807;28;20042;-77
2022/08/07 07:10:12;;;;;;;1.55;1.10;;;19.80;93.20;;;;;;5008938;28;20168;-77
2022/08/07 07:12:42;;;;;;;1.98;1.00;;;19.80;93.00;;;;;;4977150;28;20406;-77
2022/08/07 07:15:08;;;;;;;1.20;0.90;;;20.00;93.10;;;;;;4978306;28;20423;-77
2022/08/07 07:17:41;;;;;;;2.42;0.98;;;20.20;92.80;;;;;;5011651;28;20117;-77
2022/08/07 07:20:10;;;;;;;1.23;1.10;;;20.40;92.10;;;;;;5001287;28;20096;-77
2022/08/07 07:22:36;;;;;;;3.28;1.17;;;20.60;91.90;;;;;;4994729;28;20042;-77
2022/08/07 07:25:02;;;;;;;1.38;0.82;;;20.80;91.50;;;;;;5010879;28;20092;-77
2022/08/07 07:27:29;;;;;;;2.17;1.10;;;21.00;91.20;;;;;;4991095;28;20195;-77
2022/08/07 07:29:56;;;;;;;3.40;0.68;;;21.10;90.70;;;;;;5006270;28;20037;-77
2022/08/07 07:32:22;;;;;;;0.80;0.70;;;21.30;90.10;;;;;;4996910;28;20041;-77
2022/08/07 07:34:50;;;;;;;1.67;1.17;;;21.50;89.70;;;;;;5012941;28;20042;-78
2022/08/07 07:37:16;;;;;;;2.20;1.30;;;21.60;88.90;;;;;;5012549;28;20041;-77
2022/08/07 07:39:41;;;;;;;1.23;0.65;;;21.80;87.60;;;;;;4997790;28;20034;-77
2022/08/07 07:42:08;;;;;;;1.40;0.75;;;21.80;86.80;;;;;;4994532;28;20068;-78
2022/08/07 07:44:34;;;;;;;1.73;0.60;;;22.00;84.30;;;;;;5012892;28;20486;-77
2022/08/07 07:46:59;;;;;;;2.30;0.93;;;22.10;85.90;;;;;;4998701;28;20140;-78
2022/08/07 07:49:26;;;;;;;1.08;0.82;;;22.40;84.10;;;;;;4996298;28;20041;-78
2022/08/07 07:51:51;;;;;;;0.88;0.60;;;22.40;83.30;;;;;;5008265;28;20489;-78
2022/08/07 07:54:17;;;;;;;2.13;1.02;;;22.60;83.30;;;;;;4990014;28;20166;-78
2022/08/07 07:56:42;;;;;;;2.55;0.63;;;22.80;82.60;;;;;;4991770;28;20053;-78
2022/08/07 07:59:08;;;;;;;4.13;0.93;;;22.90;81.90;;;;;;5009414;28;20064;-78
2022/08/07 08:01:34;;;;;;;3.65;0.80;;;23.00;81.20;;;;;;4995994;28;20026;-78
2022/08/07 08:04:01;;;;;;;1.20;0.70;;;23.20;80.70;;;;;;4994661;28;20363;-78
2022/08/07 08:06:27;;;;;;;0.95;0.70;;;23.30;81.50;;;;;;4983390;28;20030;-78
2022/08/07 08:08:53;;;;;;;1.10;0.85;;;23.40;81.70;;;;;;4975951;28;20381;-78
2022/08/07 08:11:19;;;;;;;3.22;0.82;;;23.70;80.10;;;;;;4962577;28;20129;-79
2022/08/07 08:13:46;;;;;;;0.60;0.60;;;23.80;78.30;;;;;;4961285;28;20027;-79
2022/08/07 08:16:15;;;;;;;1.30;0.80;;;24.10;77.30;;;;;;4981710;28;20033;-79
2022/08/07 08:18:41;;;;;;;1.30;0.90;;;24.10;77.70;;;;;;5004422;28;20069;-79
2022/08/07 08:27:03;;;;;;;2.35;1.10;;;24.30;76.50;;;;;;4982887;28;20061;-79
2022/08/07 08:29:21;;;;;;;1.95;0.82;;;24.80;69.90;;;;;;5003607;28;20181;-79
2022/08/07 08:31:48;;;;;;;2.63;0.70;;;24.90;69.30;;;;;;4984593;28;20120;-78
2022/08/07 08:34:14;;;;;;;1.60;0.85;;;24.90;70.30;;;;;;4986906;28;20466;-78
2022/08/07 08:36:39;;;;;;;0.88;0.57;;;25.00;70.90;;;;;;4999020;28;20044;-77
2022/08/07 08:39:06;;;;;;;2.05;0.65;;;25.20;67.60;;;;;;4967027;28;20041;-78
2022/08/07 08:41:41;;;;;;;1.60;0.52;;;25.30;69.40;;;;;;4975074;28;20033;-78
2022/08/07 08:44:11;;;;;;;0.63;0.63;;;25.60;68.10;;;;;;5006887;28;20030;-78
2022/08/07 08:47:12;;;;;;;2.17;0.60;;;25.90;61.40;;;;;;5000521;28;20030;-78
2022/08/07 08:49:49;;;;;;;1.55;0.60;;;26.00;62.00;;;;;;4964688;28;20187;-78
2022/08/07 08:52:24;;;;;;;1.80;0.70;;;25.90;65.10;;;;;;4978891;28;20034;-78
2022/08/07 08:54:58;;;;;;;0.50;0.50;;;26.00;63.80;;;;;;4980530;28;20033;-78
2022/08/07 08:57:50;;;;;;;0.80;0.60;;;26.00;61.10;;;;;;5002283;28;20033;-83
2022/08/07 09:00:16;;;;;;;0.43;0.40;;;26.20;64.20;;;;;;4976377;28;20071;-82
2022/08/07 09:02:51;;;;;;;1.23;0.40;;;26.40;63.60;;;;;;5000925;28;20034;-82
2022/08/07 09:05:42;;;;;;;1.42;0.50;;;26.70;58.90;;;;;;4962821;28;20038;-83
2022/08/07 09:08:10;;;;;;;1.73;0.50;;;26.70;60.40;;;;;;4992505;28;20027;-82
2022/08/07 09:10:47;;;;;;;1.60;0.50;;;26.90;56.00;;;;;;5022493;28;20037;-83
2022/08/07 09:13:39;;;;;;;0.50;0.40;;;27.00;55.00;;;;;;4975749;28;20034;-83
2022/08/07 09:16:18;;;;;;;0.88;0.40;;;26.90;56.70;;;;;;4993419;28;20056;-83
2022/08/07 09:19:16;;;;;;;2.85;0.60;;;26.90;58.10;;;;;;4959083;28;20573;-83
2022/08/07 09:21:47;;;;;;;1.05;0.30;;;27.30;55.60;;;;;;5001441;28;20049;-83
2022/08/07 09:24:31;;;;;;;0.65;0.60;;;27.40;54.10;;;;;;5009007;28;20108;-83
2022/08/07 09:27:18;;;;;;;1.10;0.40;;;27.50;53.80;;;;;;4994144;28;20034;-83
2022/08/07 09:29:47;;;;;;;4.55;0.88;;;27.50;51.80;;;;;;5003339;28;20113;-81
2022/08/07 09:32:34;;;;;;;0.40;0.40;;;27.70;52.30;;;;;;4999349;28;20486;-81
2022/08/07 09:35:22;;;;;;;2.05;0.30;;;27.70;51.00;;;;;;5006662;28;20437;-81
2022/08/07 09:38:10;;;;;;;0.70;0.30;;;27.80;48.20;;;;;;5008734;28;20040;-81
2022/08/07 09:41:02;;;;;;;0.30;0.30;;;27.80;50.80;;;;;;5004129;28;20034;-81
2022/08/07 09:43:58;;;;;;;1.52;0.45;;;27.80;52.30;;;;;;5015193;28;20485;-81
2022/08/07 09:46:23;;;;;;;2.33;0.40;;;27.90;51.40;;;;;;4970505;28;20037;-81
2022/08/07 09:49:16;;;;;;;2.05;0.40;;;28.00;49.80;;;;;;4996262;28;20041;-82
2022/08/07 09:51:47;;;;;;;0.90;0.50;;;28.10;50.10;;;;;;5001004;28;20034;-82
2022/08/07 09:54:28;;;;;;;0.80;0.38;;;28.20;51.50;;;;;;4992055;28;20035;-82
2022/08/07 09:57:32;;;;;;;1.85;0.40;;;28.40;52.00;;;;;;4993698;28;20615;-82
2022/08/07 10:00:11;;;;;;;0.50;0.20;;;28.30;51.90;;;;;;4987026;28;20044;-82
2022/08/07 10:03:00;;;;;;;1.42;0.47;;;28.50;51.10;;;;;;4979947;28;20065;-83
2022/08/07 10:06:08;;;;;;;1.40;0.45;;;28.80;51.50;;;;;;5009624;28;20026;-83
2022/08/07 10:08:55;;;;;;;1.08;0.30;;;28.80;49.40;;;;;;4994491;28;20557;-83
2022/08/07 10:11:29;;;;;;;0.65;0.30;;;28.90;47.30;;;;;;4998714;28;20321;-84
2022/08/07 10:14:21;;;;;;;0.50;0.37;;;28.90;46.40;;;;;;5003384;28;20572;-84
2022/08/07 10:17:03;;;;;;;2.10;0.60;;;28.90;47.00;;;;;;4967040;28;20030;-84
2022/08/07 10:20:01;;;;;;;1.60;0.55;;;29.00;47.10;;;;;;4961920;28;20451;-84
2022/08/07 10:22:32;;;;;;;0.75;0.47;;;29.10;47.40;;;;;;5019627;28;20042;-83
2022/08/07 10:25:19;;;;;;;0.70;0.47;;;29.20;45.90;;;;;;4999193;28;20113;-84
2022/08/07 10:27:51;;;;;;;0.80;0.38;;;29.20;47.10;;;;;;4962020;28;20112;-84
2022/08/07 10:30:30;;;;;;;1.65;0.32;;;29.50;47.70;;;;;;5003795;28;20037;-84
2022/08/07 10:33:37;;;;;;;1.30;0.30;;;30.10;46.80;;;;;;5009575;28;20045;-85
2022/08/07 10:36:12;;;;;;;1.10;0.35;;;29.80;46.50;;;;;;4988809;28;20034;-85
2022/08/07 10:38:51;;;;;;;0.70;0.40;;;29.90;47.30;;;;;;5002084;28;20037;-85
2022/08/07 10:41:35;;;;;;;0.80;0.50;;;29.90;44.90;;;;;;5009950;28;20058;-85
2022/08/07 10:44:08;;;;;;;0.73;0.40;;;30.10;47.20;;;;;;5013768;28;20561;-85
2022/08/07 10:46:53;;;;;;;0.40;0.30;;;30.60;46.60;;;;;;4988723;28;20022;-85
2022/08/07 10:49:43;;;;;;;0.50;0.50;;;30.70;45.10;;;;;;4989009;28;20026;-83
2022/08/07 10:52:17;;;;;;;0.50;0.30;;;30.50;43.10;;;;;;5010137;28;20330;-84
2022/08/07 10:54:55;;;;;;;0.75;0.40;;;31.00;44.80;;;;;;4977202;28;20030;-84
2022/08/07 10:57:55;;;;;;;2.25;0.40;;;31.10;44.70;;;;;;5025714;28;20377;-83
2022/08/07 11:00:22;;;;;;;0.57;0.40;;;30.60;41.20;;;;;;4980906;28;20122;-82
2022/08/07 11:03:02;;;;;;;0.43;0.30;;;30.60;42.60;;;;;;4996294;28;20053;-83
2022/08/07 11:05:55;;;;;;;1.42;0.68;;;30.60;43.40;;;;;;5023676;28;20485;-81
2022/08/07 11:08:42;;;;;;;0.30;0.30;;;30.60;43.10;;;;;;5025230;28;20034;-83
2022/08/07 11:11:30;;;;;;;1.77;0.50;;;30.70;44.60;;;;;;5014199;28;20439;-82
2022/08/07 11:14:09;;;;;;;0.50;0.40;;;30.90;44.30;;;;;;5009246;28;20037;-82
2022/08/07 11:16:44;;;;;;;1.80;0.52;;;30.90;44.60;;;;;;4968162;28;20494;-81
2022/08/07 11:19:23;;;;;;;0.93;0.32;;;31.00;44.60;;;;;;4981066;28;20126;-81
2022/08/07 11:21:59;;;;;;;1.38;0.30;;;31.10;43.40;;;;;;5004704;28;20042;-80
2022/08/07 11:24:32;;;;;;;1.00;0.50;;;31.30;42.80;;;;;;4963440;28;20121;-79
2022/08/07 11:27:26;;;;;;;0.25;0.25;;;31.40;42.00;;;;;;4974878;28;20030;-81
2022/08/07 11:30:03;;;;;;;1.60;0.50;;;31.40;42.50;;;;;;5010894;28;20111;-80
2022/08/07 11:32:48;;;;;;;3.03;0.60;;;31.50;40.00;;;;;;4972821;28;20038;-81
2022/08/07 11:35:21;;;;;;;0.43;0.40;;;31.50;40.40;;;;;;4994063;28;20053;-81
2022/08/07 11:38:11;;;;;;;1.75;0.47;;;31.50;42.80;;;;;;4990275;28;20114;-80
2022/08/07 11:40:49;;;;;;;1.02;0.32;;;31.70;41.70;;;;;;5008126;28;20038;-81
2022/08/07 11:43:18;;;;;;;0.85;0.40;;;31.80;40.80;;;;;;5011067;28;20060;-81
2022/08/07 11:46:10;;;;;;;1.65;0.50;;;31.70;39.70;;;;;;4975013;28;20076;-79
2022/08/07 11:48:40;;;;;;;1.10;0.40;;;31.50;38.00;;;;;;4974496;28;20041;-79
2022/08/07 11:51:32;;;;;;;1.63;0.50;;;31.50;40.20;;;;;;4312832;28;10000414;-79
2022/08/07 11:54:33;;;;;;;0.47;0.40;;;31.60;40.90;;;;;;4995107;28;20042;-77
2022/08/07 11:57:11;;;;;;;0.60;0.40;;;31.70;42.60;;;;;;5014205;28;20430;-78
2022/08/07 11:59:43;;;;;;;1.67;0.50;;;33.30;40.40;;;;;;4995035;28;20056;-77
2022/08/07 12:02:45;;;;;;;0.63;0.40;;;32.80;40.20;;;;;;4999333;28;20254;-77
2022/08/07 12:05:25;;;;;;;0.57;0.38;;;32.30;39.80;;;;;;4992435;28;20038;-76
2022/08/07 12:08:01;;;;;;;2.22;0.50;;;32.20;40.00;;;;;;5005406;28;20049;-77
2022/08/07 12:10:40;;;;;;;3.53;0.60;;;32.40;37.10;;;;;;4979561;28;20096;-77
2022/08/07 12:13:09;;;;;;;1.40;0.35;;;32.30;37.80;;;;;;4988599;28;20033;-78
2022/08/07 12:15:41;;;;;;;0.43;0.43;;;32.40;39.90;;;;;;5001855;28;20476;-77
2022/08/07 12:18:14;;;;;;;1.05;0.50;;;32.50;39.80;;;;;;4995301;28;20417;-79
2022/08/07 12:21:17;;;;;;;0.40;0.40;;;32.40;39.20;;;;;;5006645;28;20030;-79
2022/08/07 12:23:51;;;;;;;0.98;0.43;;;32.30;37.80;;;;;;4999857;28;20116;-79
2022/08/07 12:26:27;;;;;;;0.45;0.30;;;32.40;39.60;;;;;;4988718;28;20524;-79
2022/08/07 12:29:06;;;;;;;0.35;0.30;;;32.80;39.30;;;;;;5009091;28;20045;-79
2022/08/07 12:31:47;;;;;;;0.73;0.32;;;32.70;39.80;;;;;;5019365;28;20054;-79
2022/08/07 12:34:12;;;;;;;0.70;0.40;;;33.40;40.10;;;;;;4979218;28;20040;-79
2022/08/07 12:36:38;;;;;;;1.25;0.50;;;33.00;37.00;;;;;;4995274;28;20038;-79
2022/08/07 12:39:04;;;;;;;0.57;0.30;;;32.70;37.40;;;;;;4991410;28;20022;-78
2022/08/07 12:41:29;;;;;;;0.95;0.30;;;33.10;40.10;;;;;;5006149;28;20049;-78
2022/08/07 12:43:55;;;;;;;0.65;0.50;;;34.90;38.00;;;;;;5005389;28;20045;-78
2022/08/07 12:46:42;;;;;;;0.65;0.50;;;34.00;37.20;;;;;;4986274;28;20460;-78
2022/08/07 12:49:10;;;;;;;1.45;0.60;;;33.40;36.20;;;;;;5005696;28;20040;-77
2022/08/07 12:51:45;;;;;;;1.05;0.40;;;33.10;37.80;;;;;;5008071;28;20413;-77
2022/08/07 12:54:13;;;;;;;0.50;0.50;;;33.00;36.00;;;;;;4996566;28;20521;-77
2022/08/07 12:56:45;;;;;;;1.67;0.50;;;33.00;38.10;;;;;;5022043;28;20108;-78
2022/08/07 12:59:11;;;;;;;1.27;0.45;;;33.50;38.00;;;;;;4988396;28;20042;-77
2022/08/07 13:01:56;;;;;;;1.73;0.47;;;33.70;37.60;;;;;;4983744;28;20088;-77
2022/08/07 13:04:28;;;;;;;1.38;0.50;;;33.60;36.10;;;;;;4985297;28;20049;-77
2022/08/07 13:07:12;;;;;;;0.68;0.50;;;33.40;36.60;;;;;;5009806;28;20038;-78
2022/08/07 13:10:01;;;;;;;0.85;0.50;;;33.30;35.80;;;;;;4988244;28;20050;-79
2022/08/07 13:12:57;;;;;;;0.52;0.38;;;33.30;36.70;;;;;;4987131;28;20081;-78